Time;durP1;ratioP1;P1;durP2;ratioP2;P2;SDS_P1;SDS_P2;PMS_P1;PMS_P2;Temp;Humidity;BMP_temperature;BMP_pressure;BME280_temperature;BME280_humidity;BME280_pressure;Samples;Min_cycle;Max_cycle;Signal;HPM_P1;HPM_P2
2023/03/13 00:01:36;;;;;;;5.90;2.30;;;;;;;11.39;33.21;100068.38;108257;1253;62285;-65
2023/03/13 00:04:04;;;;;;;6.30;2.50;;;;;;;11.57;32.78;100067.63;108292;1252;61030;-67
2023/03/13 00:06:42;;;;;;;3.30;1.90;;;;;;;11.36;33.01;100069.17;108161;1253;73778;-65
2023/03/13 00:09:11;;;;;;;7.70;2.20;;;;;;;11.50;33.06;100074.58;108222;1253;71284;-66
2023/03/13 00:11:43;;;;;;;5.30;2.30;;;;;;;11.71;32.75;100076.70;108202;1253;73907;-66
2023/03/13 00:14:13;;;;;;;4.70;1.90;;;;;;;11.60;32.87;100080.70;108244;1252;62249;-66
2023/03/13 00:16:42;;;;;;;4.20;1.90;;;;;;;11.49;33.03;100080.59;108187;1254;61274;-65
2023/03/13 00:19:11;;;;;;;4.10;1.90;;;;;;;11.76;32.73;100075.29;108229;1253;74054;-66
2023/03/13 00:21:42;;;;;;;3.60;2.30;;;;;;;11.89;32.50;100078.57;108157;1253;70633;-63
2023/03/13 00:24:16;;;;;;;5.70;1.80;;;;;;;11.46;33.25;100080.58;108119;1253;73900;-65
2023/03/13 00:26:44;;;;;;;4.90;2.00;;;;;;;11.95;32.52;100080.98;108193;1252;63174;-66
2023/03/13 00:29:12;;;;;;;4.00;2.10;;;;;;;12.21;32.22;100081.96;108219;1253;61654;-65
2023/03/13 00:31:46;;;;;;;4.80;2.30;;;;;;;12.07;32.18;100087.84;108189;1253;74832;-66
2023/03/13 00:34:16;;;;;;;3.70;1.80;;;;;;;11.87;32.34;100091.31;108100;1253;71156;-64
2023/03/13 00:36:45;;;;;;;3.60;2.00;;;;;;;11.91;32.32;100087.64;108248;1253;73884;-66
2023/03/13 00:39:14;;;;;;;5.40;2.20;;;;;;;12.08;32.05;100088.86;108237;1252;62922;-66
2023/03/13 00:41:45;;;;;;;3.30;1.70;;;;;;;11.89;32.25;100090.88;108259;1253;60910;-66
2023/03/13 00:44:13;;;;;;;5.80;2.20;;;;;;;11.96;32.11;100092.73;108297;1253;73895;-66
2023/03/13 00:46:42;;;;;;;4.50;1.90;;;;;;;11.86;32.22;100090.65;108256;1253;71059;-66
2023/03/13 00:49:10;;;;;;;9.00;2.30;;;;;;;11.58;32.54;100093.26;108113;1257;73594;-66
2023/03/13 00:51:41;;;;;;;5.30;2.30;;;;;;;11.88;32.12;100097.27;108236;1252;61879;-65
2023/03/13 00:54:09;;;;;;;5.60;2.50;;;;;;;11.80;32.25;100099.52;108178;1253;61345;-65
2023/03/13 00:56:41;;;;;;;7.30;2.00;;;;;;;11.68;32.63;100096.50;108212;1253;74765;-65
2023/03/13 00:59:09;;;;;;;4.10;2.20;;;;;;;11.51;32.68;100100.55;108191;1253;71428;-65
2023/03/13 01:01:37;;;;;;;7.20;2.30;;;;;;;11.66;32.64;100101.18;108101;1253;72935;-65
2023/03/13 01:04:07;;;;;;;8.40;2.70;;;;;;;11.40;32.87;100103.48;108130;1253;62679;-65
2023/03/13 01:06:39;;;;;;;4.40;1.90;;;;;;;11.05;33.22;100103.83;108099;1253;61457;-64
2023/03/13 01:09:09;;;;;;;4.90;2.30;;;;;;;11.17;33.28;100101.23;108112;1253;73602;-64
2023/03/13 01:11:39;;;;;;;3.60;2.10;;;;;;;11.43;32.69;100102.65;108150;1253;71412;-65
2023/03/13 01:14:10;;;;;;;4.50;2.50;;;;;;;11.24;33.01;100097.63;108049;1258;73878;-64
2023/03/13 01:16:46;;;;;;;11.00;2.90;;;;;;;11.14;33.08;100097.31;108115;1253;63612;-65
2023/03/13 01:19:15;;;;;;;5.80;2.40;;;;;;;11.01;33.20;100099.73;108192;1253;60988;-66
2023/03/13 01:21:45;;;;;;;12.20;4.70;;;;;;;11.13;33.12;100095.78;108195;1253;73203;-65
2023/03/13 01:24:14;;;;;;;9.60;3.40;;;;;;;11.17;33.07;100099.15;108261;1253;69588;-66
2023/03/13 01:26:49;;;;;;;5.90;2.70;;;;;;;11.22;32.85;100100.86;108190;1255;72945;-65
2023/03/13 01:29:19;;;;;;;6.70;2.70;;;;;;;11.41;32.76;100097.48;108161;1253;63704;-65
2023/03/13 01:31:48;;;;;;;3.90;1.80;;;;;;;11.47;32.41;100104.61;108208;1251;61257;-66
2023/03/13 01:34:21;;;;;;;6.50;2.70;;;;;;;11.53;32.37;100099.79;108184;1253;73226;-66
2023/03/13 01:36:53;;;;;;;5.30;2.20;;;;;;;11.69;32.21;100103.32;108236;1253;70691;-64
2023/03/13 01:39:21;;;;;;;5.90;2.20;;;;;;;11.54;32.17;100107.10;108224;1253;73636;-64
2023/03/13 01:41:49;;;;;;;4.70;2.20;;;;;;;11.54;32.11;100110.82;108159;1253;61622;-65
2023/03/13 01:44:23;;;;;;;6.50;1.90;;;;;;;11.98;31.67;100113.04;108141;1252;60579;-66
2023/03/13 01:46:52;;;;;;;4.10;2.20;;;;;;;12.04;31.17;100118.95;108232;1252;71813;-65
2023/03/13 01:49:32;;;;;;;6.30;2.20;;;;;;;12.10;31.12;100125.39;108202;1253;71731;-65
2023/03/13 01:52:07;;;;;;;3.40;1.80;;;;;;;12.13;31.06;100131.95;108164;1253;71758;-65
2023/03/13 01:55:03;;;;;;;3.00;1.90;;;;;;;11.78;31.28;100137.42;108194;1254;61642;-66
2023/03/13 01:57:42;;;;;;;4.30;2.10;;;;;;;11.72;31.48;100138.72;108201;1252;61482;-66
2023/03/13 02:00:17;;;;;;;3.20;1.40;;;;;;;12.11;31.00;100144.38;108167;1253;74733;-65
2023/03/13 02:02:49;;;;;;;4.10;2.40;;;;;;;12.18;30.40;100152.12;108080;1253;70630;-66
2023/03/13 02:05:20;;;;;;;4.50;1.90;;;;;;;12.70;30.15;100155.48;108125;1253;71800;-65
2023/03/13 02:07:52;;;;;;;5.80;2.20;;;;;;;12.51;30.11;100161.82;108195;1253;60352;-69
2023/03/13 02:10:21;;;;;;;6.30;2.10;;;;;;;12.42;29.88;100168.02;108050;1253;59356;-66
2023/03/13 02:12:50;;;;;;;3.80;1.70;;;;;;;12.30;30.09;100172.20;108025;1253;74735;-66
2023/03/13 02:15:21;;;;;;;3.40;1.80;;;;;;;11.80;30.16;100173.05;108133;1253;71271;-66
2023/03/13 02:17:50;;;;;;;4.00;1.90;;;;;;;11.90;30.44;100177.23;108139;1253;74643;-67
2023/03/13 02:20:25;;;;;;;4.40;1.90;;;;;;;11.97;30.37;100179.41;107974;1253;62740;-67
2023/03/13 02:23:26;;;;;;;4.20;2.00;;;;;;;11.99;30.19;100180.94;108165;1253;61668;-66
2023/03/13 02:25:55;;;;;;;5.30;2.10;;;;;;;12.07;30.21;100184.27;108136;1253;74132;-64
2023/03/13 02:28:34;;;;;;;7.80;1.90;;;;;;;12.34;29.89;100187.89;108200;1255;70490;-66
2023/03/13 02:31:05;;;;;;;3.50;2.00;;;;;;;12.18;29.78;100188.03;108214;1253;72470;-66
2023/03/13 02:33:37;;;;;;;3.00;1.70;;;;;;;12.16;30.13;100191.11;108203;1253;61656;-67
2023/03/13 02:36:09;;;;;;;3.10;1.60;;;;;;;12.22;29.93;100193.13;108216;1253;61262;-66
2023/03/13 02:38:50;;;;;;;4.20;1.60;;;;;;;12.54;29.50;100190.19;108264;1253;74832;-66
2023/03/13 02:41:19;;;;;;;4.70;2.00;;;;;;;12.29;29.77;100192.13;108232;1253;71758;-64
2023/03/13 02:43:47;;;;;;;7.90;2.00;;;;;;;12.14;29.67;100189.63;108040;1253;73852;-65
2023/03/13 02:46:17;;;;;;;4.40;2.00;;;;;;;12.04;29.90;100192.84;108119;1253;63011;-66
2023/03/13 02:48:54;;;;;;;5.70;2.10;;;;;;;12.03;29.89;100195.16;108208;1252;60301;-65
2023/03/13 02:51:32;;;;;;;3.30;1.80;;;;;;;11.81;29.93;100198.71;108307;1252;72924;-64
2023/03/13 02:54:02;;;;;;;4.80;1.90;;;;;;;11.70;30.25;100200.74;108198;1253;70150;-65
2023/03/13 02:56:32;;;;;;;4.70;2.30;;;;;;;11.54;30.55;100200.48;108241;1256;73019;-66
2023/03/13 02:59:01;;;;;;;6.00;2.50;;;;;;;11.55;30.34;100200.82;108207;1253;61827;-64
2023/03/13 03:01:31;;;;;;;4.70;1.70;;;;;;;11.47;30.71;100201.14;108193;1253;61238;-64
2023/03/13 03:03:59;;;;;;;5.30;2.00;;;;;;;11.57;30.46;100204.76;108089;1253;74839;-65
2023/03/13 03:06:34;;;;;;;5.10;2.50;;;;;;;11.74;30.25;100213.23;108087;1253;71505;-65
2023/03/13 03:09:03;;;;;;;5.50;2.10;;;;;;;11.95;30.11;100211.34;107984;1253;73552;-64
2023/03/13 03:11:33;;;;;;;5.40;2.00;;;;;;;11.69;30.22;100212.02;108103;1253;62581;-66
2023/03/13 03:14:06;;;;;;;5.30;2.20;;;;;;;11.49;30.44;100216.52;108129;1253;61846;-65
2023/03/13 03:16:37;;;;;;;7.60;2.10;;;;;;;11.64;30.34;100222.09;108139;1253;74050;-65
2023/03/13 03:19:07;;;;;;;5.80;2.30;;;;;;;11.51;30.27;100225.39;108176;1253;69524;-65
2023/03/13 03:21:36;;;;;;;9.20;2.90;;;;;;;11.81;30.28;100232.84;108134;1253;73638;-66
2023/03/13 03:24:05;;;;;;;12.00;4.10;;;;;;;11.52;30.35;100229.58;108119;1253;62858;-65
2023/03/13 03:26:34;;;;;;;9.50;3.40;;;;;;;11.39;30.43;100233.06;108182;1253;60894;-65
2023/03/13 03:29:04;;;;;;;;;;;;;;;11.55;30.28;100229.09;108116;1257;73632;-67
2023/03/13 03:31:35;;;;;;;7.80;3.70;;;;;;;11.65;30.03;100232.92;108172;1253;70450;-65
2023/03/13 03:34:04;;;;;;;7.30;3.70;;;;;;;11.75;30.14;100240.30;108220;1253;70960;-65
2023/03/13 03:36:32;;;;;;;8.00;3.80;;;;;;;11.54;30.25;100245.33;108178;1253;62300;-65
2023/03/13 03:39:01;;;;;;;7.90;3.60;;;;;;;11.74;29.98;100245.59;108218;1253;60271;-65
2023/03/13 03:41:30;;;;;;;12.10;5.40;;;;;;;11.69;29.92;100248.96;108238;1257;73255;-66
2023/03/13 03:43:58;;;;;;;11.00;5.00;;;;;;;11.82;29.72;100255.33;108268;1253;70377;-65
2023/03/13 03:46:32;;;;;;;10.00;4.30;;;;;;;12.01;29.42;100256.34;108273;1256;72868;-65
2023/03/13 03:49:00;;;;;;;8.10;4.00;;;;;;;11.84;29.58;100261.20;108269;1253;60795;-67
2023/03/13 03:51:29;;;;;;;8.10;3.50;;;;;;;11.68;29.79;100260.79;108252;1253;61389;-66
2023/03/13 03:53:57;;;;;;;8.30;3.20;;;;;;;11.39;29.97;100268.41;108070;1258;73899;-66
2023/03/13 03:56:25;;;;;;;10.10;3.50;;;;;;;11.21;30.22;100267.34;108004;1253;71157;-66
2023/03/13 03:58:55;;;;;;;8.80;3.50;;;;;;;11.13;30.15;100267.08;108190;1253;71862;-65
2023/03/13 04:01:46;;;;;;;7.20;3.50;;;;;;;10.93;30.43;100276.60;108120;1253;61243;-67
2023/03/13 04:04:19;;;;;;;8.80;3.60;;;;;;;11.14;30.20;100281.47;107987;1253;59625;-66
2023/03/13 04:06:51;;;;;;;8.90;3.40;;;;;;;10.99;30.45;100286.23;108165;1253;73803;-66
2023/03/13 04:09:20;;;;;;;7.10;3.70;;;;;;;10.69;30.84;100286.43;108117;1253;70764;-65
2023/03/13 04:11:54;;;;;;;9.00;4.10;;;;;;;10.79;30.74;100290.45;108172;1253;73911;-65
2023/03/13 04:14:24;;;;;;;5.70;3.40;;;;;;;10.91;30.99;100293.91;108230;1253;62809;-66
2023/03/13 04:16:52;;;;;;;9.30;3.70;;;;;;;10.70;31.19;100301.66;108120;1253;60554;-66
2023/03/13 04:19:20;;;;;;;8.10;3.70;;;;;;;10.63;31.35;100312.07;108143;1253;71680;-66
2023/03/13 04:21:49;;;;;;;10.40;4.60;;;;;;;10.74;31.42;100316.45;108173;1253;71204;-66
2023/03/13 04:24:19;;;;;;;14.70;5.50;;;;;;;10.76;31.47;100314.29;108232;1253;73851;-67
2023/03/13 04:26:47;;;;;;;16.30;5.40;;;;;;;10.56;31.81;100313.91;108171;1253;62070;-66
2023/03/13 04:29:16;;;;;;;24.70;7.90;;;;;;;10.56;32.20;100319.52;108214;1253;60433;-65
2023/03/13 04:32:10;;;;;;;20.30;7.20;;;;;;;10.73;32.12;100325.98;107960;1253;73077;-64
2023/03/13 04:35:10;;;;;;;11.30;5.00;;;;;;;10.47;32.30;100329.65;108007;1256;72099;-66
2023/03/13 04:38:10;;;;;;;16.10;6.50;;;;;;;10.27;32.91;100338.70;107889;1253;73645;-65
2023/03/13 04:40:57;;;;;;;18.90;7.60;;;;;;;10.47;32.76;100336.86;108170;1253;63003;-65
2023/03/13 04:43:47;;;;;;;28.90;10.70;;;;;;;10.60;32.62;100340.11;108208;1253;61345;-66
2023/03/13 04:46:36;;;;;;;30.60;11.70;;;;;;;10.71;32.41;100339.55;107950;1253;74489;-66
2023/03/13 04:49:28;;;;;;;39.80;14.40;;;;;;;10.75;32.45;100344.84;108205;1253;70990;-66
2023/03/13 04:52:21;;;;;;;46.30;15.80;;;;;;;10.78;32.45;100351.08;108251;1253;73386;-66
2023/03/13 04:55:13;;;;;;;39.00;14.10;;;;;;;10.59;32.68;100361.76;108078;1253;62743;-68
2023/03/13 04:57:51;;;;;;;34.60;13.90;;;;;;;10.65;32.74;100365.39;108273;1253;61097;-65
2023/03/13 05:00:48;;;;;;;40.70;14.10;;;;;;;10.67;32.82;100370.60;107824;1253;74818;-66
2023/03/13 05:03:28;;;;;;;35.00;12.60;;;;;;;11.23;32.10;100373.05;108178;1253;71179;-66
2023/03/13 05:06:16;;;;;;;31.20;11.20;;;;;;;11.46;31.80;100372.73;108127;1252;73704;-64
2023/03/13 05:09:23;;;;;;;32.10;12.70;;;;;;;11.22;32.08;100373.98;107623;1260;62108;-66
2023/03/13 05:12:13;;;;;;;37.80;14.40;;;;;;;11.21;32.12;100378.21;107536;1260;60864;-66
2023/03/13 05:15:06;;;;;;;34.80;13.30;;;;;;;11.81;32.70;100372.85;108024;1256;74863;-66
2023/03/13 05:18:03;;;;;;;28.90;11.10;;;;;;;12.49;33.14;100373.20;108164;1253;71124;-65
2023/03/13 05:21:05;;;;;;;41.90;13.90;;;;;;;13.80;32.34;100377.71;107657;1253;73914;-66
2023/03/13 05:23:53;;;;;;;37.90;11.80;;;;;;;14.79;30.94;100371.00;107891;1253;60306;-67
2023/03/13 05:26:35;;;;;;;23.60;10.80;;;;;;;15.91;29.46;100364.76;108144;1252;60551;-67
2023/03/13 05:29:31;;;;;;;24.60;11.00;;;;;;;16.88;27.54;100368.24;107893;1253;74816;-65
2023/03/13 05:32:29;;;;;;;29.80;10.70;;;;;;;17.64;26.08;100376.08;108097;1253;70656;-67
2023/03/13 05:35:14;;;;;;;30.10;11.10;;;;;;;18.31;25.17;100375.91;107968;1253;73800;-68
2023/03/13 05:37:58;;;;;;;46.10;21.10;;;;;;;19.01;23.96;100378.09;108147;1253;60373;-67
2023/03/13 05:40:49;;;;;;;41.90;17.20;;;;;;;19.07;23.86;100381.77;108197;1253;60641;-67
2023/03/13 05:43:37;;;;;;;28.30;13.80;;;;;;;19.91;23.20;100384.42;107984;1253;73895;-67
2023/03/13 05:46:11;;;;;;;31.70;13.40;;;;;;;20.43;22.68;100388.36;107988;1253;71293;-66
2023/03/13 05:48:56;;;;;;;25.70;12.10;;;;;;;20.98;22.32;100395.27;108116;1253;74327;-66
2023/03/13 05:51:43;;;;;;;26.20;12.40;;;;;;;20.91;22.21;100394.02;108124;1253;60604;-67
2023/03/13 05:54:30;;;;;;;17.80;9.90;;;;;;;20.63;22.12;100394.50;108108;1257;61277;-67
2023/03/13 05:57:22;;;;;;;19.50;9.90;;;;;;;21.06;21.94;100405.05;108124;1253;72953;-67
2023/03/13 06:00:08;;;;;;;15.30;8.30;;;;;;;21.75;21.48;100404.50;108156;1253;71902;-67
2023/03/13 06:02:56;;;;;;;18.00;8.50;;;;;;;22.05;21.09;100407.99;108086;1253;73904;-66
2023/03/13 06:05:31;;;;;;;16.70;8.60;;;;;;;22.14;20.89;100416.27;108107;1253;61543;-67
2023/03/13 06:08:01;;;;;;;15.50;8.70;;;;;;;22.14;20.88;100412.63;108152;1253;60436;-67
2023/03/13 06:10:31;;;;;;;17.70;9.20;;;;;;;21.88;20.95;100417.08;108155;1253;75043;-67
2023/03/13 06:13:00;;;;;;;19.30;8.80;;;;;;;21.66;21.22;100413.20;108125;1253;71399;-67
2023/03/13 06:15:52;;;;;;;17.10;9.40;;;;;;;21.76;21.32;100416.79;108124;1253;73470;-69
2023/03/13 06:18:41;;;;;;;15.60;7.70;;;;;;;22.10;20.89;100418.15;108048;1253;61081;-69
2023/03/13 06:21:09;;;;;;;16.20;8.30;;;;;;;22.32;21.08;100419.60;108132;1253;60104;-66
2023/03/13 06:23:38;;;;;;;13.80;7.40;;;;;;;22.66;20.06;100418.95;108165;1257;74789;-69
2023/03/13 06:26:06;;;;;;;13.70;7.10;;;;;;;22.31;20.08;100420.94;108184;1253;70082;-67
2023/03/13 06:28:37;;;;;;;14.90;7.40;;;;;;;22.56;20.41;100425.84;108246;1256;72704;-68
2023/03/13 06:31:07;;;;;;;13.40;6.90;;;;;;;22.34;20.56;100426.80;108559;1253;60403;-67
2023/03/13 06:33:36;;;;;;;12.20;6.80;;;;;;;22.04;20.23;100431.10;108218;1252;60350;-69
2023/03/13 06:36:05;;;;;;;11.40;6.40;;;;;;;21.82;20.36;100432.49;108220;1253;73915;-68
2023/03/13 06:38:34;;;;;;;12.40;6.90;;;;;;;21.10;20.76;100433.77;108209;1253;71240;-66
2023/03/13 06:41:02;;;;;;;12.10;6.00;;;;;;;20.57;21.09;100438.27;108187;1253;73644;-66
2023/03/13 06:43:31;;;;;;;17.20;6.80;;;;;;;20.00;21.89;100439.73;108206;1253;60296;-67
2023/03/13 06:46:06;;;;;;;16.30;7.60;;;;;;;19.66;22.24;100438.91;108195;1254;60591;-66
2023/03/13 06:48:37;;;;;;;14.70;7.30;;;;;;;19.74;22.34;100442.80;108235;1256;74380;-68
2023/03/13 06:51:10;;;;;;;16.10;6.80;;;;;;;19.99;21.92;100445.87;108249;1253;71295;-68
2023/03/13 06:53:40;;;;;;;15.00;7.60;;;;;;;20.16;21.71;100448.60;108238;1253;72338;-67
2023/03/13 06:56:08;;;;;;;19.10;7.60;;;;;;;20.67;21.82;100443.29;108213;1253;60229;-70
2023/03/13 06:58:36;;;;;;;16.00;7.70;;;;;;;20.56;21.96;100446.09;108174;1254;60585;-65
2023/03/13 07:01:10;;;;;;;15.20;7.80;;;;;;;20.79;21.86;100449.35;108258;1253;74998;-67
2023/03/13 07:03:38;;;;;;;19.30;7.60;;;;;;;21.12;21.37;100449.88;108229;1253;71534;-68
2023/03/13 07:06:07;;;;;;;17.20;8.20;;;;;;;21.27;21.21;100450.21;108222;1254;73361;-68
2023/03/13 07:08:35;;;;;;;19.20;7.80;;;;;;;20.83;21.55;100459.20;108221;1254;59826;-67
2023/03/13 07:11:05;;;;;;;19.00;8.20;;;;;;;20.40;21.92;100460.93;108015;1257;60445;-67
2023/03/13 07:13:36;;;;;;;16.60;7.10;;;;;;;20.35;22.07;100466.48;108197;1254;74949;-66
2023/03/13 07:16:11;;;;;;;19.00;7.40;;;;;;;20.39;22.37;100467.61;108241;1257;70444;-67
2023/03/13 07:18:46;;;;;;;17.20;7.30;;;;;;;20.60;22.19;100468.94;108210;1253;73871;-65
2023/03/13 07:21:14;;;;;;;17.20;7.20;;;;;;;20.33;22.36;100465.33;108194;1253;60424;-67
2023/03/13 07:23:42;;;;;;;16.50;7.60;;;;;;;19.77;23.20;100471.83;108188;1254;61564;-66
2023/03/13 07:26:13;;;;;;;13.20;7.30;;;;;;;19.47;23.49;100476.05;108189;1255;74188;-69
2023/03/13 07:28:42;;;;;;;19.30;7.10;;;;;;;19.62;23.22;100474.09;108214;1254;69857;-66
2023/03/13 07:31:15;;;;;;;21.70;7.60;;;;;;;19.48;23.55;100478.05;108203;1253;73047;-68
2023/03/13 07:33:44;;;;;;;19.20;8.10;;;;;;;20.09;23.19;100475.63;108227;1252;60551;-68
2023/03/13 07:36:14;;;;;;;16.70;5.90;;;;;;;19.92;22.91;100475.92;108218;1252;61632;-68
2023/03/13 07:38:47;;;;;;;12.50;6.00;;;;;;;19.34;23.71;100474.06;108236;1257;73692;-66
2023/03/13 07:41:15;;;;;;;12.00;6.20;;;;;;;19.56;23.56;100474.36;108176;1256;69887;-67
2023/03/13 07:43:44;;;;;;;11.10;5.60;;;;;;;20.30;23.38;100472.57;108140;1256;73646;-69
2023/03/13 07:46:17;;;;;;;13.90;6.20;;;;;;;20.14;23.06;100471.33;108190;1254;60307;-67
2023/03/13 07:48:46;;;;;;;12.60;6.20;;;;;;;20.65;22.86;100468.01;108161;1253;60438;-67
2023/03/13 07:51:20;;;;;;;12.30;6.00;;;;;;;21.09;22.82;100466.55;108217;1254;75179;-67
2023/03/13 07:54:05;;;;;;;14.10;6.60;;;;;;;21.40;22.19;100469.35;108206;1256;70864;-67
2023/03/13 07:56:34;;;;;;;11.60;5.60;;;;;;;22.11;22.21;100470.31;108256;1254;72019;-66
2023/03/13 07:59:03;;;;;;;8.60;4.40;;;;;;;22.31;21.46;100468.66;108176;1253;61193;-66
2023/03/13 08:01:32;;;;;;;13.30;6.20;;;;;;;22.38;20.97;100470.61;108258;1254;60334;-67
2023/03/13 08:04:01;;;;;;;10.90;5.60;;;;;;;22.41;20.97;100466.50;108202;1253;73730;-68
2023/03/13 08:06:31;;;;;;;19.80;7.10;;;;;;;21.94;21.43;100463.20;108195;1254;70027;-67
2023/03/13 08:09:01;;;;;;;;;;;;;;;22.14;21.09;100465.58;108191;1254;73713;-69
2023/03/13 08:11:32;;;;;;;;;;;;;;;22.19;20.73;100469.83;108284;1254;60731;-68
2023/03/13 08:14:01;;;;;;;11.20;5.70;;;;;;;21.44;21.59;100473.21;108157;1257;60330;-67
2023/03/13 08:16:33;;;;;;;11.60;5.20;;;;;;;21.50;21.41;100477.70;108182;1254;73120;-68
2023/03/13 08:19:04;;;;;;;11.20;5.40;;;;;;;20.50;22.21;100482.65;108200;1254;71322;-66
2023/03/13 08:21:34;;;;;;;13.80;5.60;;;;;;;20.29;22.50;100481.86;108196;1259;73769;-68
2023/03/13 08:24:05;;;;;;;14.90;5.60;;;;;;;20.32;22.50;100483.23;108207;1254;60709;-68
2023/03/13 08:26:40;;;;;;;12.50;6.30;;;;;;;19.73;23.06;100476.92;107940;1252;238816;-66
2023/03/13 08:30:32;;;;;;;11.00;5.70;;;;;;;16.80;26.33;100485.81;104783;1291;601899;-67
2023/03/13 08:33:00;;;;;;;11.50;6.20;;;;;;;19.05;23.97;100482.18;107266;1266;60742;-67
2023/03/13 08:35:29;;;;;;;12.30;6.40;;;;;;;19.10;23.80;100482.77;107319;1266;60770;-67
2023/03/13 08:37:58;;;;;;;11.80;5.80;;;;;;;18.48;24.38;100485.40;107245;1266;71334;-67
2023/03/13 08:40:26;;;;;;;15.60;6.10;;;;;;;19.06;23.94;100483.04;107252;1266;71276;-67
2023/03/13 08:42:55;;;;;;;10.80;6.00;;;;;;;18.98;23.56;100478.41;107256;1266;72339;-67
2023/03/13 08:45:24;;;;;;;10.50;6.50;;;;;;;18.74;24.08;100489.91;107213;1266;59400;-65
2023/03/13 08:47:53;;;;;;;14.90;6.10;;;;;;;19.00;24.12;100495.91;107384;1268;61942;-67
2023/03/13 08:50:23;;;;;;;13.70;7.20;;;;;;;18.59;24.32;100493.02;107392;1264;73306;-67
2023/03/13 08:52:51;;;;;;;14.40;7.10;;;;;;;18.94;24.44;100488.27;107415;1263;71763;-67
2023/03/13 08:55:19;;;;;;;16.20;6.80;;;;;;;19.20;24.36;100483.18;107386;1264;72607;-65
2023/03/13 08:57:47;;;;;;;15.40;7.10;;;;;;;19.19;24.07;100478.11;107539;1261;59665;-67
2023/03/13 09:00:17;;;;;;;14.20;7.80;;;;;;;19.57;24.10;100482.09;107891;1256;59525;-66
2023/03/13 09:02:45;;;;;;;19.10;7.10;;;;;;;19.26;24.13;100486.86;107931;1256;74187;-67
2023/03/13 09:05:14;;;;;;;15.10;6.90;;;;;;;18.86;24.29;100489.29;107874;1257;69701;-67
2023/03/13 09:07:42;;;;;;;13.00;7.50;;;;;;;18.23;24.86;100491.07;107881;1260;72890;-68
2023/03/13 09:10:11;;;;;;;15.00;6.80;;;;;;;18.27;24.95;100488.19;107915;1256;60476;-67
2023/03/13 09:12:40;;;;;;;16.40;6.80;;;;;;;18.96;24.32;100473.08;107711;1256;60601;-67
2023/03/13 09:15:13;;;;;;;14.30;6.50;;;;;;;18.86;24.39;100473.73;107968;1256;73254;-68
2023/03/13 09:17:43;;;;;;;;;;;;;;;18.91;24.25;100471.07;107950;1256;70288;-67
2023/03/13 09:20:11;;;;;;;12.90;6.10;;;;;;;19.03;24.43;100467.98;107912;1256;73505;-68
2023/03/13 09:22:41;;;;;;;13.70;7.00;;;;;;;19.37;24.16;100457.78;107913;1256;60251;-66
2023/03/13 09:25:10;;;;;;;16.50;7.30;;;;;;;19.95;23.62;100452.77;107911;1256;59552;-66
2023/03/13 09:27:39;;;;;;;14.00;5.40;;;;;;;19.28;23.73;100447.41;107947;1256;72523;-67
2023/03/13 09:30:08;;;;;;;12.00;6.00;;;;;;;19.32;23.64;100445.52;107893;1256;69602;-67
2023/03/13 09:32:36;;;;;;;11.30;5.90;;;;;;;19.17;23.60;100459.31;107930;1262;73465;-68
2023/03/13 09:35:06;;;;;;;13.30;5.70;;;;;;;18.78;23.96;100457.30;107724;1261;59542;-66
2023/03/13 09:37:35;;;;;;;11.70;6.20;;;;;;;19.19;23.66;100452.44;107964;1256;61388;-66
2023/03/13 09:40:07;;;;;;;13.30;6.30;;;;;;;19.89;23.23;100452.84;107920;1256;71418;-67
2023/03/13 09:42:51;;;;;;;15.30;6.20;;;;;;;19.32;23.54;100446.06;108008;1257;68822;-66
2023/03/13 09:45:34;;;;;;;18.10;7.50;;;;;;;19.85;23.27;100444.55;107941;1256;72909;-68
2023/03/13 09:48:32;;;;;;;11.80;6.40;;;;;;;20.47;22.83;100446.18;107913;1256;59412;-67
2023/03/13 09:51:12;;;;;;;14.50;7.10;;;;;;;20.49;22.51;100448.36;107921;1256;60012;-68
2023/03/13 09:54:02;;;;;;;14.00;6.70;;;;;;;20.40;22.40;100449.33;107871;1256;73514;-68
2023/03/13 09:56:36;;;;;;;16.00;7.00;;;;;;;20.62;22.28;100445.60;107811;1256;70391;-67
2023/03/13 09:59:30;;;;;;;15.00;6.90;;;;;;;21.57;21.58;100442.52;107906;1256;72775;-67
2023/03/13 10:02:00;;;;;;;13.50;6.60;;;;;;;21.35;21.84;100436.36;107873;1256;60745;-68
2023/03/13 10:04:37;;;;;;;11.80;6.20;;;;;;;20.87;21.86;100440.91;107709;1256;60906;-67
2023/03/13 10:07:11;;;;;;;14.50;6.40;;;;;;;20.33;22.17;100442.86;107905;1256;72859;-68
2023/03/13 10:09:41;;;;;;;10.40;6.10;;;;;;;20.81;21.80;100435.11;107716;1256;70597;-65
2023/03/13 10:12:17;;;;;;;17.00;7.30;;;;;;;21.09;21.78;100420.98;107656;1256;73002;-68
2023/03/13 10:15:04;;;;;;;12.10;5.60;;;;;;;20.47;22.12;100425.80;107879;1256;60098;-68
2023/03/13 10:17:37;;;;;;;19.90;6.90;;;;;;;20.90;22.01;100413.92;107922;1261;60033;-67
2023/03/13 10:20:26;;;;;;;11.20;6.20;;;;;;;21.78;21.42;100411.73;107882;1261;72675;-66
2023/03/13 10:23:13;;;;;;;13.20;6.40;;;;;;;21.35;21.52;100409.02;107964;1257;71517;-67
2023/03/13 10:25:41;;;;;;;15.90;7.00;;;;;;;21.75;21.68;100412.58;107868;1256;73936;-67
2023/03/13 10:28:14;;;;;;;12.30;6.00;;;;;;;21.81;21.30;100407.05;107896;1256;59708;-67
2023/03/13 10:30:46;;;;;;;13.20;6.10;;;;;;;21.83;21.08;100407.48;107865;1256;61689;-67
2023/03/13 10:33:24;;;;;;;16.50;6.50;;;;;;;22.43;21.13;100400.86;107881;1258;74153;-69
2023/03/13 10:36:08;;;;;;;11.70;5.70;;;;;;;22.17;20.55;100402.77;107896;1261;70004;-68
2023/03/13 10:38:45;;;;;;;10.90;5.40;;;;;;;22.19;20.57;100398.14;107891;1256;73480;-67
2023/03/13 10:41:24;;;;;;;12.30;6.30;;;;;;;22.51;20.54;100393.54;107883;1256;61320;-69
2023/03/13 10:44:14;;;;;;;12.00;5.40;;;;;;;22.42;20.42;100388.21;107731;1256;60038;-68
2023/03/13 10:46:45;;;;;;;9.00;5.00;;;;;;;20.87;21.29;100393.58;107783;1256;72649;-67
2023/03/13 10:49:18;;;;;;;12.90;5.50;;;;;;;20.94;21.32;100389.16;107922;1256;70185;-67
2023/03/13 10:51:49;;;;;;;6.80;4.20;;;;;;;21.46;21.59;100386.55;107988;1257;73955;-68
2023/03/13 10:54:22;;;;;;;12.20;5.50;;;;;;;21.18;21.54;100390.20;107915;1257;59721;-67
2023/03/13 10:57:08;;;;;;;16.20;6.20;;;;;;;21.72;20.85;100382.42;107956;1256;60547;-67
2023/03/13 10:59:39;;;;;;;9.00;5.20;;;;;;;21.77;20.99;100381.81;107983;1256;72180;-66
2023/03/13 11:02:17;;;;;;;12.10;5.10;;;;;;;21.31;21.51;100376.09;108010;1259;71385;-67
2023/03/13 11:04:48;;;;;;;12.00;5.30;;;;;;;21.27;21.68;100370.05;107962;1256;72992;-66
2023/03/13 11:07:34;;;;;;;9.00;5.20;;;;;;;21.24;21.18;100361.65;107988;1256;61665;-66
2023/03/13 11:10:26;;;;;;;17.80;10.80;;;;;;;22.43;20.97;100353.61;108004;1257;61405;-68
2023/03/13 11:12:59;;;;;;;18.20;6.80;;;;;;;23.61;20.25;100346.25;108050;1256;73233;-67
2023/03/13 11:15:48;;;;;;;12.70;6.50;;;;;;;22.73;20.27;100346.39;108116;1256;69963;-68
2023/03/13 11:18:44;;;;;;;13.10;6.40;;;;;;;22.82;20.36;100338.86;108006;1256;73462;-66
2023/03/13 11:21:19;;;;;;;10.70;5.40;;;;;;;23.59;19.89;100328.98;107730;1255;61396;-68
2023/03/13 11:23:52;;;;;;;14.40;5.40;;;;;;;23.57;19.75;100328.27;107946;1256;60576;-68
2023/03/13 11:26:34;;;;;;;11.70;5.80;;;;;;;23.01;20.05;100333.11;107936;1256;73549;-68
2023/03/13 11:29:25;;;;;;;13.00;5.40;;;;;;;22.94;20.36;100331.77;107761;1256;71385;-68
2023/03/13 11:31:59;;;;;;;13.00;5.90;;;;;;;22.00;20.90;100328.45;107939;1256;71425;-67
2023/03/13 11:34:43;;;;;;;12.40;6.00;;;;;;;22.82;20.74;100316.13;107834;1260;61383;-66
2023/03/13 11:37:15;;;;;;;9.40;5.30;;;;;;;23.13;20.02;100313.85;107715;1261;60407;-68
2023/03/13 11:40:08;;;;;;;12.20;5.70;;;;;;;23.32;20.02;100309.83;107866;1256;74058;-66
2023/03/13 11:42:56;;;;;;;15.80;5.50;;;;;;;22.99;20.24;100306.06;107950;1256;69770;-67
2023/03/13 11:45:38;;;;;;;8.00;5.30;;;;;;;23.09;20.03;100304.33;107904;1260;73937;-67
2023/03/13 11:48:08;;;;;;;10.40;5.60;;;;;;;22.53;20.29;100305.90;107926;1260;60505;-67